createdAt,value
2018-06-15T00:00:11.109Z,27.03
2018-06-15T00:02:39.741Z,28.30
2018-06-15T00:05:08.374Z,25.77
2018-06-15T00:07:37.029Z,26.87
2018-06-15T00:10:05.768Z,26.87
2018-06-15T00:12:34.411Z,27.50
2018-06-15T00:15:03.072Z,26.37
2018-06-15T00:17:31.718Z,27.27
2018-06-15T00:20:00.364Z,26.40
2018-06-15T00:22:29.044Z,28.90
2018-06-15T00:24:57.655Z,26.57
2018-06-15T00:27:26.264Z,28.03
2018-06-15T00:29:54.949Z,26.80
2018-06-15T00:32:23.683Z,27.80
2018-06-15T00:34:52.353Z,28.90
2018-06-15T00:37:21.078Z,28.30
2018-06-15T00:39:49.661Z,29.20
2018-06-15T00:42:19.303Z,29.90
2018-06-15T00:44:47.947Z,31.33
2018-06-15T00:47:16.640Z,32.80
2018-06-15T00:49:45.303Z,30.20
2018-06-15T00:52:13.963Z,31.17
2018-06-15T00:54:42.633Z,30.93
2018-06-15T00:57:22.408Z,33.37
2018-06-15T00:59:51.614Z,30.90
2018-06-15T01:02:20.473Z,33.50
2018-06-15T01:04:49.154Z,33.23
2018-06-15T01:07:17.830Z,34.13
2018-06-15T01:09:46.591Z,32.40
2018-06-15T01:12:15.245Z,33.00
2018-06-15T01:14:43.928Z,33.77
2018-06-15T01:17:12.639Z,35.40
2018-06-15T01:19:41.335Z,35.07
2018-06-15T01:22:10.007Z,36.30
2018-06-15T01:24:38.663Z,35.00
2018-06-15T01:27:07.265Z,34.53
2018-06-15T01:29:36.005Z,34.00
2018-06-15T01:32:04.771Z,34.33
2018-06-15T01:34:33.397Z,33.57
2018-06-15T01:37:02.074Z,34.33
2018-06-15T01:39:30.712Z,34.07
2018-06-15T01:41:59.419Z,34.80
2018-06-15T01:44:28.169Z,34.10
2018-06-15T01:46:57.652Z,34.03
2018-06-15T01:49:26.324Z,33.80
2018-06-15T01:51:55.493Z,34.97
2018-06-15T01:54:24.102Z,35.43
2018-06-15T01:56:52.761Z,34.77
2018-06-15T01:59:21.401Z,34.73
2018-06-15T02:01:50.071Z,33.40
2018-06-15T02:04:18.712Z,33.57
2018-06-15T02:06:47.487Z,35.03
2018-06-15T02:09:16.275Z,35.40
2018-06-15T02:11:44.916Z,34.23
2018-06-15T02:14:13.547Z,33.50
2018-06-15T02:16:42.232Z,33.53
2018-06-15T02:19:10.870Z,32.57
2018-06-15T02:21:39.582Z,32.33
2018-06-15T02:24:08.242Z,34.73
2018-06-15T02:26:36.954Z,33.83
2018-06-15T02:29:05.627Z,32.60
2018-06-15T02:31:34.292Z,33.07
2018-06-15T02:34:02.958Z,32.67
2018-06-15T02:36:31.595Z,33.13
2018-06-15T02:39:00.229Z,33.10
2018-06-15T02:41:28.881Z,33.83
2018-06-15T02:43:57.538Z,34.30
2018-06-15T02:46:26.204Z,32.63
2018-06-15T02:48:54.905Z,32.83
2018-06-15T02:51:23.615Z,32.87
2018-06-15T02:53:52.380Z,32.77
2018-06-15T02:56:21.128Z,33.47
2018-06-15T02:58:49.782Z,34.17
2018-06-15T03:01:18.388Z,33.90
2018-06-15T03:03:47.093Z,32.83
2018-06-15T03:06:15.730Z,35.07
2018-06-15T03:08:44.376Z,34.37
2018-06-15T03:11:13.004Z,34.67
2018-06-15T03:13:41.628Z,34.17
2018-06-15T03:16:10.388Z,34.17
2018-06-15T03:18:39.033Z,34.70
2018-06-15T03:21:07.650Z,33.17
2018-06-15T03:23:36.865Z,34.57
2018-06-15T03:26:05.566Z,35.90
2018-06-15T03:28:34.223Z,34.50
2018-06-15T03:31:02.951Z,34.40
2018-06-15T03:33:31.587Z,34.93
2018-06-15T03:36:00.243Z,33.53
2018-06-15T03:38:28.943Z,35.77
2018-06-15T03:40:57.645Z,32.60
2018-06-15T03:43:26.301Z,34.73
2018-06-15T03:45:55.060Z,35.13
2018-06-15T03:48:23.695Z,35.80
2018-06-15T03:50:52.318Z,34.43
2018-06-15T03:53:21.096Z,33.77
2018-06-15T03:55:49.834Z,34.13
2018-06-15T03:58:18.436Z,34.23
2018-06-15T04:00:47.100Z,33.23
2018-06-15T04:03:15.738Z,33.77
2018-06-15T04:05:44.443Z,35.47
2018-06-15T04:08:13.193Z,35.50
2018-06-15T04:10:41.834Z,34.97
2018-06-15T04:13:10.472Z,34.03
2018-06-15T04:15:39.243Z,34.63
2018-06-15T04:18:08.671Z,33.03
2018-06-15T04:20:38.737Z,35.10
2018-06-15T04:23:07.827Z,34.07
2018-06-15T04:25:36.785Z,33.63
2018-06-15T04:28:05.434Z,35.07
2018-06-15T04:30:34.200Z,33.70
2018-06-15T04:33:02.889Z,34.27
2018-06-15T04:35:32.052Z,33.57
2018-06-15T04:38:00.714Z,34.73
2018-06-15T04:40:29.434Z,34.20
2018-06-15T04:42:58.087Z,35.57
2018-06-15T04:45:26.806Z,34.20
2018-06-15T04:47:55.425Z,34.10
2018-06-15T04:50:24.067Z,34.70
2018-06-15T04:52:52.747Z,34.00
2018-06-15T04:55:21.388Z,36.10
2018-06-15T04:57:50.054Z,34.03
2018-06-15T05:00:18.694Z,34.43
2018-06-15T05:02:47.312Z,32.13
2018-06-15T05:05:15.967Z,33.50
2018-06-15T05:07:44.692Z,33.57
2018-06-15T05:10:13.342Z,32.33
2018-06-15T05:12:41.954Z,31.67
2018-06-15T05:15:10.620Z,32.87
2018-06-15T05:17:39.312Z,33.23
2018-06-15T05:20:07.978Z,34.23
2018-06-15T05:22:36.605Z,35.00
2018-06-15T05:25:05.297Z,36.40
2018-06-15T05:27:33.964Z,36.27
2018-06-15T05:30:02.675Z,36.67
2018-06-15T05:32:31.315Z,36.10
2018-06-15T05:34:59.957Z,36.17
2018-06-15T05:37:28.791Z,36.07
2018-06-15T05:39:57.421Z,35.10
2018-06-15T05:42:26.098Z,35.90
2018-06-15T05:44:54.739Z,35.97
2018-06-15T05:47:23.490Z,34.57
2018-06-15T05:49:52.136Z,35.47
2018-06-15T05:52:20.806Z,35.63
2018-06-15T05:54:49.580Z,34.77
2018-06-15T05:57:18.308Z,34.67
2018-06-15T05:59:46.964Z,36.97
2018-06-15T06:02:15.568Z,36.23
2018-06-15T06:04:44.246Z,36.60
2018-06-15T06:07:12.907Z,36.83
2018-06-15T06:09:41.589Z,36.00
2018-06-15T06:12:10.229Z,37.03
2018-06-15T06:14:38.868Z,37.40
2018-06-15T06:17:07.541Z,37.63
2018-06-15T06:19:36.992Z,39.07
2018-06-15T06:22:05.964Z,37.97
2018-06-15T06:24:34.691Z,38.57
2018-06-15T06:27:03.360Z,38.67
2018-06-15T06:29:31.959Z,39.20
2018-06-15T06:32:00.685Z,37.50
2018-06-15T06:34:29.465Z,37.83
2018-06-15T06:36:58.086Z,38.20
2018-06-15T06:39:27.000Z,39.00
2018-06-15T06:41:55.846Z,38.47
2018-06-15T06:44:24.532Z,38.03
2018-06-15T06:46:53.188Z,38.97
2018-06-15T06:49:21.895Z,39.60
2018-06-15T06:51:50.603Z,39.57
2018-06-15T06:54:19.319Z,39.43
2018-06-15T06:56:48.032Z,37.37
2018-06-15T06:59:16.818Z,37.97
2018-06-15T07:01:45.527Z,37.87
2018-06-15T07:04:14.218Z,36.90
2018-06-15T07:06:43.297Z,36.17
2018-06-15T07:09:11.927Z,37.83
2018-06-15T07:11:40.584Z,37.83
2018-06-15T07:14:08.865Z,36.27
2018-06-15T07:16:37.506Z,35.30
2018-06-15T07:19:06.765Z,36.23
2018-06-15T07:21:35.786Z,34.43
2018-06-15T07:24:04.514Z,34.27
2018-06-15T07:26:33.268Z,34.80
2018-06-15T07:29:02.048Z,35.27
2018-06-15T07:31:30.719Z,33.17
2018-06-15T07:33:59.357Z,34.40
2018-06-15T07:36:28.041Z,34.13
2018-06-15T07:38:56.685Z,34.73
2018-06-15T07:41:25.315Z,34.10
2018-06-15T07:43:53.978Z,33.37
2018-06-15T07:46:22.672Z,33.80
2018-06-15T07:48:51.527Z,33.00
2018-06-15T07:51:20.239Z,32.23
2018-06-15T07:53:48.893Z,31.70
2018-06-15T07:56:17.614Z,31.73
2018-06-15T07:58:45.895Z,28.53
2018-06-15T08:01:14.590Z,30.30
2018-06-15T08:03:47.444Z,28.97
2018-06-15T08:06:16.137Z,30.73
2018-06-15T08:08:44.764Z,30.37
2018-06-15T08:11:13.454Z,29.40
2018-06-15T08:13:42.127Z,29.93
2018-06-15T08:16:10.786Z,29.87
2018-06-15T08:18:39.531Z,28.87
2018-06-15T08:21:08.250Z,27.13
2018-06-15T08:23:36.926Z,26.50
2018-06-15T08:26:05.620Z,28.93
2018-06-15T08:28:34.306Z,28.40
2018-06-15T08:31:03.036Z,28.33
2018-06-15T08:33:31.715Z,25.93
2018-06-15T08:36:00.353Z,28.20
2018-06-15T08:38:29.545Z,27.37
2018-06-15T08:40:58.203Z,24.67
2018-06-15T08:43:26.850Z,25.20
2018-06-15T08:45:55.501Z,25.23
2018-06-15T08:48:24.194Z,24.50
2018-06-15T08:50:52.855Z,22.20
2018-06-15T08:53:21.494Z,23.20
2018-06-15T08:55:49.802Z,23.30
2018-06-15T08:58:18.490Z,20.97
2018-06-15T09:00:47.514Z,23.27
2018-06-15T09:03:16.210Z,21.63
2018-06-15T09:05:44.847Z,22.13
2018-06-15T09:08:13.507Z,22.13
2018-06-15T09:10:42.189Z,20.13
2018-06-15T09:13:10.915Z,20.20
2018-06-15T09:15:39.621Z,21.33
2018-06-15T09:18:08.288Z,19.97
2018-06-15T09:20:37.191Z,20.13
2018-06-15T09:23:05.947Z,19.73
2018-06-15T09:25:34.653Z,18.00
2018-06-15T09:28:03.337Z,19.07
2018-06-15T09:30:32.054Z,21.10
2018-06-15T09:33:00.706Z,20.97
2018-06-15T09:35:29.410Z,19.97
2018-06-15T09:37:58.027Z,22.30
2018-06-15T09:40:26.676Z,21.20
2018-06-15T09:42:55.390Z,21.33
2018-06-15T09:45:24.012Z,21.73
2018-06-15T09:47:52.654Z,20.37
2018-06-15T09:50:21.342Z,22.33
2018-06-15T09:52:50.673Z,20.37
2018-06-15T09:55:19.366Z,20.20
2018-06-15T09:57:47.968Z,20.17
2018-06-15T10:00:21.814Z,18.90
2018-06-15T10:02:50.463Z,20.03
2018-06-15T10:05:19.144Z,20.73
2018-06-15T10:07:47.780Z,20.50
2018-06-15T10:10:16.474Z,18.80
2018-06-15T10:12:45.144Z,17.37
2018-06-15T10:15:13.799Z,18.13
2018-06-15T10:17:42.463Z,16.23
2018-06-15T10:20:11.094Z,15.77
2018-06-15T10:22:39.770Z,16.70
2018-06-15T10:25:08.484Z,16.40
2018-06-15T10:27:37.143Z,15.90
2018-06-15T10:30:05.924Z,14.13
2018-06-15T10:32:34.299Z,15.17
2018-06-15T10:35:03.340Z,15.20
2018-06-15T10:37:32.004Z,15.27
2018-06-15T10:40:00.718Z,15.97
2018-06-15T10:42:29.378Z,16.30
2018-06-15T10:44:57.674Z,16.37
2018-06-15T10:47:26.384Z,15.03
2018-06-15T10:49:54.997Z,12.93
2018-06-15T10:52:23.659Z,12.47
2018-06-15T10:54:52.343Z,13.43
2018-06-15T10:57:21.099Z,15.43
2018-06-15T10:59:49.800Z,14.03
2018-06-15T11:02:18.088Z,14.00
2018-06-15T11:04:46.850Z,14.57
2018-06-15T11:07:15.492Z,13.87
2018-06-15T11:09:44.231Z,13.47
2018-06-15T11:12:12.900Z,13.60
2018-06-15T11:14:41.577Z,12.27
2018-06-15T11:17:10.249Z,13.43
2018-06-15T11:19:39.041Z,13.43
2018-06-15T11:22:07.750Z,12.97
2018-06-15T11:24:36.421Z,13.43
2018-06-15T11:27:05.213Z,12.90
2018-06-15T11:29:33.903Z,14.07
2018-06-15T11:32:02.583Z,13.70
2018-06-15T11:34:31.737Z,13.17
2018-06-15T11:37:00.553Z,13.43
2018-06-15T11:39:29.143Z,13.27
2018-06-15T11:41:57.793Z,12.50
2018-06-15T11:44:26.457Z,13.03
2018-06-15T11:46:55.263Z,12.73
2018-06-15T11:49:23.900Z,14.03
2018-06-15T11:51:52.619Z,12.17
2018-06-15T11:54:21.385Z,13.13
2018-06-15T11:56:49.676Z,12.57
2018-06-15T11:59:18.398Z,13.27
2018-06-15T12:01:47.448Z,14.30
2018-06-15T12:04:16.113Z,14.20
2018-06-15T12:06:44.807Z,13.53
2018-06-15T12:09:13.495Z,13.90
2018-06-15T12:11:42.160Z,14.40
2018-06-15T12:14:10.788Z,14.70
2018-06-15T12:16:39.449Z,15.63
2018-06-15T12:19:08.120Z,14.20
2018-06-15T12:21:36.436Z,13.10
2018-06-15T12:24:05.102Z,14.03
2018-06-15T12:26:33.772Z,13.63
2018-06-15T12:29:02.508Z,15.03
2018-06-15T12:31:31.180Z,14.00
2018-06-15T12:33:59.880Z,12.53
2018-06-15T12:36:28.559Z,14.60
2018-06-15T12:38:57.278Z,13.40
2018-06-15T12:41:26.018Z,13.50
2018-06-15T12:43:54.762Z,14.53
2018-06-15T12:46:23.534Z,15.73
2018-06-15T12:48:52.317Z,16.07
2018-06-15T12:51:21.018Z,14.37
2018-06-15T12:53:49.739Z,14.63
2018-06-15T12:56:18.471Z,15.47
2018-06-15T12:58:47.170Z,14.43
2018-06-15T13:01:15.873Z,14.80
2018-06-15T13:03:44.599Z,13.93
2018-06-15T13:06:13.324Z,13.43
2018-06-15T13:08:41.993Z,13.43
2018-06-15T13:11:10.744Z,11.17
2018-06-15T13:13:39.516Z,11.20
2018-06-15T13:16:08.277Z,11.73
2018-06-15T13:18:37.133Z,10.30
2018-06-15T13:21:05.821Z,11.07
2018-06-15T13:23:34.550Z,10.07
2018-06-15T13:26:04.315Z,10.03
2018-06-15T13:28:32.946Z,11.13
2018-06-15T13:31:01.656Z,10.53
2018-06-15T13:33:30.344Z,10.20
2018-06-15T13:35:58.970Z,9.60
2018-06-15T13:38:27.633Z,10.20
2018-06-15T13:40:56.481Z,8.30
2018-06-15T13:43:25.197Z,7.83
2018-06-15T13:45:53.908Z,7.10
2018-06-15T13:48:22.586Z,5.93
2018-06-15T13:50:51.256Z,7.10
2018-06-15T13:53:19.988Z,7.90
2018-06-15T13:55:48.739Z,8.60
2018-06-15T13:58:17.476Z,9.10
2018-06-15T14:00:46.278Z,8.53
2018-06-15T14:03:15.086Z,7.57
2018-06-15T14:05:43.760Z,7.10
2018-06-15T14:08:12.478Z,6.37
2018-06-15T14:10:41.684Z,6.20
2018-06-15T14:13:10.373Z,7.17
2018-06-15T14:15:39.091Z,7.63
2018-06-15T14:18:07.842Z,6.07
2018-06-15T14:20:36.594Z,5.40
2018-06-15T14:23:05.288Z,5.40
2018-06-15T14:25:33.983Z,4.63
2018-06-15T14:28:02.628Z,4.57
2018-06-15T14:30:30.968Z,4.70
2018-06-15T14:32:59.633Z,5.20
2018-06-15T14:35:28.293Z,5.63
2018-06-15T14:37:56.985Z,5.13
2018-06-15T14:40:25.623Z,5.10
2018-06-15T14:42:54.273Z,4.80
2018-06-15T14:45:22.960Z,4.20
2018-06-15T14:47:51.650Z,4.67
2018-06-15T14:50:20.354Z,4.77
2018-06-15T14:52:49.034Z,4.10
2018-06-15T14:55:20.038Z,7.10
2018-06-15T14:57:48.662Z,4.30
2018-06-15T15:00:17.452Z,4.50
2018-06-15T15:02:46.160Z,4.40
2018-06-15T15:05:14.907Z,4.73
2018-06-15T15:07:43.576Z,4.30
2018-06-15T15:10:12.347Z,4.80
2018-06-15T15:12:41.024Z,4.63
2018-06-15T15:15:09.770Z,3.83
2018-06-15T15:17:38.491Z,3.80
2018-06-15T15:20:07.171Z,4.87
2018-06-15T15:22:35.963Z,4.80
2018-06-15T15:25:04.633Z,4.80
2018-06-15T15:27:33.310Z,4.67
2018-06-15T15:30:02.179Z,4.07
2018-06-15T15:32:30.881Z,4.00
2018-06-15T15:34:59.535Z,4.13
2018-06-15T15:37:29.048Z,3.80
2018-06-15T15:39:57.686Z,4.30
2018-06-15T15:42:26.460Z,4.07
2018-06-15T15:44:55.215Z,3.80
2018-06-15T15:47:23.885Z,4.00
2018-06-15T15:49:52.927Z,4.60
2018-06-15T15:52:21.649Z,3.77
2018-06-15T15:54:50.699Z,4.23
2018-06-15T15:57:19.473Z,4.03
2018-06-15T15:59:48.174Z,4.00
2018-06-15T16:02:16.927Z,3.90
2018-06-15T16:04:45.577Z,4.00
2018-06-15T16:07:14.344Z,4.03
2018-06-15T16:09:42.989Z,4.53
2018-06-15T16:12:11.646Z,4.00
2018-06-15T16:14:40.297Z,3.80
2018-06-15T16:17:08.990Z,3.90
2018-06-15T16:19:37.777Z,4.30
2018-06-15T16:22:06.472Z,3.87
2018-06-15T16:24:35.160Z,4.30
2018-06-15T16:27:03.793Z,3.40
2018-06-15T16:29:32.547Z,3.97
2018-06-15T16:32:01.253Z,4.20
2018-06-15T16:34:29.939Z,4.17
2018-06-15T16:36:58.601Z,4.40
2018-06-15T16:39:27.299Z,4.30
2018-06-15T16:41:56.027Z,4.47
2018-06-15T16:44:24.756Z,4.87
2018-06-15T16:46:54.307Z,5.23
2018-06-15T16:49:23.000Z,5.10
2018-06-15T16:51:51.673Z,4.87
2018-06-15T16:54:20.036Z,5.17
2018-06-15T16:56:48.733Z,4.60
2018-06-15T16:59:17.077Z,5.07
2018-06-15T17:01:45.801Z,5.10
2018-06-15T17:04:14.516Z,5.10
2018-06-15T17:06:43.226Z,5.07
2018-06-15T17:09:12.192Z,5.50
2018-06-15T17:11:40.467Z,5.10
2018-06-15T17:14:09.162Z,4.70
2018-06-15T17:16:37.916Z,6.30
2018-06-15T17:19:06.571Z,6.70
2018-06-15T17:21:35.259Z,7.73
2018-06-15T17:24:04.008Z,9.80
2018-06-15T17:26:32.682Z,10.00
2018-06-15T17:29:01.371Z,10.00
2018-06-15T17:31:30.006Z,9.90
2018-06-15T17:33:58.686Z,9.37
2018-06-15T17:36:27.517Z,8.67
2018-06-15T17:38:56.222Z,9.07
2018-06-15T17:41:24.902Z,9.10
2018-06-15T17:43:53.609Z,8.77
2018-06-15T17:46:22.313Z,8.93
2018-06-15T17:48:51.110Z,9.67
2018-06-15T17:51:19.806Z,9.33
2018-06-15T17:53:48.481Z,8.90
2018-06-15T17:56:17.186Z,8.67
2018-06-15T17:58:45.825Z,8.43
2018-06-15T18:01:14.459Z,8.67
2018-06-15T18:03:43.144Z,9.80
2018-06-15T18:06:11.850Z,9.93
2018-06-15T18:08:40.491Z,9.60
2018-06-15T18:11:09.153Z,9.50
2018-06-15T18:13:37.873Z,8.83
2018-06-15T18:16:06.606Z,8.90
2018-06-15T18:18:35.262Z,9.37
2018-06-15T18:21:03.976Z,9.00
2018-06-15T18:23:32.593Z,8.37
2018-06-15T18:26:01.280Z,9.70
2018-06-15T18:28:29.588Z,9.47
2018-06-15T18:30:58.237Z,9.23
2018-06-15T18:33:26.937Z,9.77
2018-06-15T18:35:55.543Z,9.20
2018-06-15T18:38:24.247Z,9.60
2018-06-15T18:40:53.348Z,9.07
2018-06-15T18:43:22.615Z,9.60
2018-06-15T18:45:51.361Z,8.70
2018-06-15T18:48:20.898Z,9.33
2018-06-15T18:50:50.289Z,7.53
2018-06-15T18:53:18.980Z,8.27
2018-06-15T18:55:47.655Z,7.57
2018-06-15T18:58:16.293Z,7.13
2018-06-15T19:00:45.069Z,7.50
2018-06-15T19:03:14.396Z,6.93
2018-06-15T19:05:43.514Z,7.40
2018-06-15T19:08:12.170Z,6.60
2018-06-15T19:10:40.476Z,7.23
2018-06-15T19:13:09.226Z,6.97
2018-06-15T19:15:37.856Z,6.97
2018-06-15T19:18:06.530Z,6.97
2018-06-15T19:20:35.194Z,6.60
2018-06-15T19:23:04.061Z,6.80
2018-06-15T19:25:32.716Z,6.73
2018-06-15T19:28:01.350Z,6.90
2018-06-15T19:30:30.107Z,6.87
2018-06-15T19:32:58.974Z,7.10
2018-06-15T19:35:27.389Z,7.13
2018-06-15T19:37:56.085Z,7.13
2018-06-15T19:40:24.808Z,7.20
2018-06-15T19:42:53.483Z,7.80
2018-06-15T19:45:22.185Z,7.77
2018-06-15T19:47:50.853Z,7.63
2018-06-15T19:50:19.507Z,7.50
2018-06-15T19:52:48.345Z,7.80
2018-06-15T19:55:17.053Z,7.97
2018-06-15T19:57:46.186Z,8.40
2018-06-15T20:00:14.834Z,8.87
2018-06-15T20:02:43.485Z,8.40
2018-06-15T20:05:12.211Z,8.40
2018-06-15T20:07:40.797Z,8.27
2018-06-15T20:10:09.463Z,7.60
2018-06-15T20:12:38.140Z,7.83
2018-06-15T20:15:06.818Z,7.77
2018-06-15T20:17:35.479Z,8.27
2018-06-15T20:20:04.299Z,7.83
2018-06-15T20:22:33.761Z,8.00
2018-06-15T20:25:03.188Z,7.73
2018-06-15T20:27:31.961Z,7.80
2018-06-15T20:30:00.677Z,8.00
2018-06-15T20:32:29.465Z,8.07
2018-06-15T20:34:58.132Z,7.63
2018-06-15T20:37:26.799Z,8.17
2018-06-15T20:39:55.985Z,7.77
2018-06-15T20:42:24.678Z,7.97
2018-06-15T20:44:53.401Z,7.77
2018-06-15T20:47:22.025Z,7.53
2018-06-15T20:49:50.734Z,7.83
2018-06-15T20:52:19.546Z,8.20
2018-06-15T20:54:48.342Z,9.00
2018-06-15T20:57:16.999Z,7.97
2018-06-15T20:59:45.660Z,7.93
2018-06-15T21:02:14.355Z,7.90
2018-06-15T21:04:43.043Z,8.03
2018-06-15T21:07:11.830Z,8.07
2018-06-15T21:09:40.543Z,7.90
2018-06-15T21:12:09.321Z,8.97
2018-06-15T21:14:38.047Z,9.80
2018-06-15T21:17:06.342Z,9.77
2018-06-15T21:19:34.654Z,10.10
2018-06-15T21:22:03.327Z,9.53
2018-06-15T21:24:32.167Z,10.40
2018-06-15T21:27:00.968Z,10.53
2018-06-15T21:29:29.669Z,10.70
2018-06-15T21:31:58.423Z,11.27
2018-06-15T21:34:27.254Z,11.13
2018-06-15T21:36:56.014Z,11.70
2018-06-15T21:39:24.786Z,11.80
2018-06-15T21:41:53.428Z,12.40
2018-06-15T21:44:22.095Z,11.93
2018-06-15T21:46:50.741Z,13.00
2018-06-15T21:49:19.930Z,11.93
2018-06-15T21:51:48.665Z,12.60
2018-06-15T21:54:17.471Z,12.20
2018-06-15T21:56:46.753Z,12.77
2018-06-15T21:59:15.625Z,12.40
2018-06-15T22:01:44.337Z,12.83
2018-06-15T22:04:13.016Z,12.20
2018-06-15T22:06:41.724Z,12.73
2018-06-15T22:09:10.441Z,12.53
2018-06-15T22:11:39.181Z,12.50
2018-06-15T22:14:07.872Z,12.90
2018-06-15T22:16:41.764Z,12.73
2018-06-15T22:19:10.414Z,12.60
2018-06-15T22:21:39.059Z,12.83
2018-06-15T22:24:07.738Z,11.87
2018-06-15T22:26:36.409Z,12.33
2018-06-15T22:29:05.223Z,12.13
2018-06-15T22:31:33.992Z,11.33
2018-06-15T22:34:02.646Z,12.17
2018-06-15T22:36:31.408Z,11.83
2018-06-15T22:39:00.222Z,11.80
2018-06-15T22:41:28.906Z,11.67
2018-06-15T22:43:57.650Z,11.70
2018-06-15T22:46:26.373Z,12.20
2018-06-15T22:48:55.113Z,12.87
2018-06-15T22:51:23.431Z,11.93
2018-06-15T22:53:52.131Z,12.27
2018-06-15T22:56:20.841Z,12.03
2018-06-15T22:58:49.525Z,11.83
2018-06-15T23:01:18.255Z,13.33
2018-06-15T23:03:47.767Z,12.07
2018-06-15T23:06:16.426Z,12.43
2018-06-15T23:08:45.152Z,12.70
2018-06-15T23:11:13.498Z,12.73
2018-06-15T23:13:42.328Z,12.53
2018-06-15T23:16:10.664Z,13.50
2018-06-15T23:18:39.394Z,13.73
2018-06-15T23:21:08.268Z,14.90
2018-06-15T23:23:36.984Z,14.60
2018-06-15T23:26:05.675Z,15.17
2018-06-15T23:28:34.397Z,14.93
2018-06-15T23:31:03.146Z,15.73
2018-06-15T23:33:31.847Z,15.03
2018-06-15T23:36:00.493Z,16.10
2018-06-15T23:38:29.234Z,15.17
2018-06-15T23:40:57.584Z,15.60
2018-06-15T23:43:26.318Z,15.50
2018-06-15T23:45:54.988Z,15.20
2018-06-15T23:48:23.694Z,15.53
2018-06-15T23:50:52.452Z,15.73
2018-06-15T23:53:21.164Z,15.47
2018-06-15T23:55:49.860Z,16.10
2018-06-15T23:58:18.530Z,16.17
